createdAt,value
2018-09-11T00:01:30.958Z,101645.87
2018-09-11T00:03:59.322Z,101646.47
2018-09-11T00:06:27.694Z,101644.91
2018-09-11T00:08:56.080Z,101647.25
2018-09-11T00:11:24.483Z,101654.81
2018-09-11T00:13:52.953Z,101662.77
2018-09-11T00:16:21.316Z,101662.96
2018-09-11T00:18:49.678Z,101665.61
2018-09-11T00:21:18.051Z,101666.77
2018-09-11T00:23:46.385Z,101669.56
2018-09-11T00:26:14.747Z,101671.22
2018-09-11T00:28:43.141Z,101674.23
2018-09-11T00:31:11.489Z,101675.87
2018-09-11T00:33:39.848Z,101667.33
2018-09-11T00:36:08.195Z,101665.90
2018-09-11T00:38:36.556Z,101664.60
2018-09-11T00:41:04.893Z,101661.42
2018-09-11T00:43:33.239Z,101660.25
2018-09-11T00:46:01.558Z,101661.42
2018-09-11T00:48:29.897Z,101658.89
2018-09-11T00:50:58.473Z,101659.38
2018-09-11T00:53:26.801Z,101652.37
2018-09-11T00:55:55.160Z,101641.30
2018-09-11T00:58:23.490Z,101635.59
2018-09-11T01:00:52.006Z,101637.71
2018-09-11T01:03:20.348Z,101636.35
2018-09-11T01:05:48.688Z,101646.08
2018-09-11T01:08:17.564Z,101652.66
2018-09-11T01:10:46.023Z,101650.34
2018-09-11T01:13:14.338Z,101645.18
2018-09-11T01:15:42.708Z,101654.80
2018-09-11T01:18:11.071Z,101655.36
2018-09-11T01:20:39.461Z,101655.47
2018-09-11T01:23:07.834Z,101653.91
2018-09-11T01:25:36.304Z,101654.22
2018-09-11T01:28:04.675Z,101655.87
2018-09-11T01:30:33.572Z,101663.05
2018-09-11T01:33:01.888Z,101649.75
2018-09-11T01:35:30.220Z,101653.23
2018-09-11T01:37:58.540Z,101645.25
2018-09-11T01:40:26.902Z,101644.69
2018-09-11T01:42:55.798Z,101651.38
2018-09-11T01:45:24.151Z,101640.23
2018-09-11T01:47:52.499Z,101643.70
2018-09-11T01:50:21.416Z,101637.81
2018-09-11T01:52:49.769Z,101638.27
2018-09-11T01:55:18.112Z,101625.09
2018-09-11T01:57:46.492Z,101626.33
2018-09-11T02:00:17.513Z,101624.97
2018-09-11T02:02:46.618Z,101630.22
2018-09-11T02:05:14.995Z,101623.79
2018-09-11T02:07:44.210Z,101624.09
2018-09-11T02:10:13.240Z,101623.71
2018-09-11T02:12:42.461Z,101626.20
2018-09-11T02:15:11.495Z,101625.41
2018-09-11T02:17:40.274Z,101626.97
2018-09-11T02:20:08.750Z,101637.42
2018-09-11T02:22:37.275Z,101633.77
2018-09-11T02:25:05.786Z,101636.66
2018-09-11T02:27:34.304Z,101633.94
2018-09-11T02:30:02.666Z,101623.56
2018-09-11T02:32:31.006Z,101614.73
2018-09-11T02:34:59.367Z,101623.15
2018-09-11T02:37:27.761Z,101626.06
2018-09-11T02:39:56.122Z,101619.49
2018-09-11T02:42:24.472Z,101622.20
2018-09-11T02:44:52.836Z,101624.81
2018-09-11T02:47:21.217Z,101621.80
2018-09-11T02:49:49.597Z,101628.02
2018-09-11T02:52:17.982Z,101624.62
2018-09-11T02:54:46.363Z,101621.52
2018-09-11T02:57:14.718Z,101625.97
2018-09-11T02:59:43.548Z,101630.36
2018-09-11T03:02:12.027Z,101629.48
2018-09-11T03:04:40.374Z,101629.00
2018-09-11T03:07:08.718Z,101635.30
2018-09-11T03:09:37.060Z,101639.55
2018-09-11T03:12:05.505Z,101637.42
2018-09-11T03:14:33.864Z,101640.91
2018-09-11T03:17:02.220Z,101646.73
2018-09-11T03:19:30.576Z,101651.78
2018-09-11T03:21:59.023Z,101651.08
2018-09-11T03:24:27.369Z,101655.84
2018-09-11T03:26:55.716Z,101658.46
2018-09-11T03:29:24.092Z,101649.16
2018-09-11T03:31:52.460Z,101644.98
2018-09-11T03:34:20.830Z,101648.08
2018-09-11T03:36:49.312Z,101639.73
2018-09-11T03:39:17.672Z,101643.80
2018-09-11T03:41:46.034Z,101643.45
2018-09-11T03:44:14.437Z,101644.42
2018-09-11T03:46:42.798Z,101639.38
2018-09-11T03:49:11.135Z,101643.83
2018-09-11T03:51:39.483Z,101642.27
2018-09-11T03:54:07.814Z,101643.83
2018-09-11T03:56:36.172Z,101651.59
2018-09-11T03:59:04.628Z,101652.27
2018-09-11T04:01:32.968Z,101656.23
2018-09-11T04:04:01.341Z,101647.50
2018-09-11T04:06:29.747Z,101652.72
2018-09-11T04:08:58.105Z,101657.48
2018-09-11T04:11:26.477Z,101658.16
2018-09-11T04:13:54.815Z,101658.64
2018-09-11T04:16:23.164Z,101661.46
2018-09-11T04:18:51.508Z,101651.95
2018-09-11T04:21:19.851Z,101658.88
2018-09-11T04:23:48.191Z,101653.72
2018-09-11T04:26:16.560Z,101655.00
2018-09-11T04:28:44.892Z,101658.19
2018-09-11T04:31:13.262Z,101662.44
2018-09-11T04:33:41.617Z,101657.98
2018-09-11T04:36:10.027Z,101657.84
2018-09-11T04:38:38.358Z,101657.39
2018-09-11T04:41:06.719Z,101661.25
2018-09-11T04:43:35.090Z,101658.36
2018-09-11T04:46:03.440Z,101662.12
2018-09-11T04:48:31.779Z,101653.70
2018-09-11T04:51:00.196Z,101648.34
2018-09-11T04:53:28.540Z,101644.89
2018-09-11T04:55:56.879Z,101639.53
2018-09-11T04:58:25.268Z,101633.53
2018-09-11T05:00:53.588Z,101629.44
2018-09-11T05:03:21.922Z,101629.61
2018-09-11T05:05:50.236Z,101625.74
2018-09-11T05:08:18.575Z,101629.81
2018-09-11T05:10:46.915Z,101628.56
2018-09-11T05:13:15.336Z,101638.94
2018-09-11T05:15:43.676Z,101620.31
2018-09-11T05:18:12.058Z,101617.59
2018-09-11T05:20:40.432Z,101615.95
2018-09-11T05:23:08.773Z,101623.03
2018-09-11T05:25:37.130Z,101627.52
2018-09-11T05:28:05.506Z,101621.49
2018-09-11T05:30:33.847Z,101626.54
2018-09-11T05:33:02.202Z,101627.31
2018-09-11T05:35:30.550Z,101635.84
2018-09-11T05:37:59.434Z,101625.56
2018-09-11T05:40:27.770Z,101634.86
2018-09-11T05:42:56.113Z,101621.88
2018-09-11T05:45:24.463Z,101626.81
2018-09-11T05:47:52.806Z,101624.52
2018-09-11T05:50:21.756Z,101634.09
2018-09-11T05:52:50.140Z,101634.89
2018-09-11T05:55:18.491Z,101626.75
2018-09-11T05:57:46.865Z,101631.30
2018-09-11T06:00:15.210Z,101626.35
2018-09-11T06:02:43.555Z,101627.35
2018-09-11T06:05:11.930Z,101625.22
2018-09-11T06:07:40.268Z,101629.53
2018-09-11T06:10:09.188Z,101627.61
2018-09-11T06:12:37.563Z,101629.93
2018-09-11T06:15:05.976Z,101633.83
2018-09-11T06:17:34.380Z,101631.30
2018-09-11T06:20:02.734Z,101629.56
2018-09-11T06:22:31.110Z,101624.52
2018-09-11T06:24:59.452Z,101629.78
2018-09-11T06:27:27.829Z,101625.67
2018-09-11T06:29:56.208Z,101627.34
2018-09-11T06:32:24.551Z,101630.14
2018-09-11T06:34:53.052Z,101621.31
2018-09-11T06:37:22.140Z,101624.70
2018-09-11T06:39:50.518Z,101623.53
2018-09-11T06:42:18.865Z,101625.50
2018-09-11T06:44:47.320Z,101618.78
2018-09-11T06:47:15.852Z,101617.42
2018-09-11T06:49:44.295Z,101611.57
2018-09-11T06:52:12.729Z,101615.84
2018-09-11T06:54:41.165Z,101612.13
2018-09-11T06:57:09.546Z,101606.14
2018-09-11T06:59:38.659Z,101611.85
2018-09-11T07:02:07.166Z,101612.22
2018-09-11T07:04:35.513Z,101602.37
2018-09-11T07:07:03.909Z,101610.38
2018-09-11T07:09:32.266Z,101608.03
2018-09-11T07:12:00.603Z,101601.32
2018-09-11T07:14:28.938Z,101599.31
2018-09-11T07:16:57.317Z,101602.05
2018-09-11T07:19:25.696Z,101606.44
2018-09-11T07:21:54.134Z,101604.25
2018-09-11T07:24:22.511Z,101602.83
2018-09-11T07:26:50.944Z,101600.16
2018-09-11T07:29:19.331Z,101600.16
2018-09-11T07:31:47.713Z,101601.22
2018-09-11T07:34:16.102Z,101600.20
2018-09-11T07:36:44.513Z,101601.63
2018-09-11T07:39:12.884Z,101585.53
2018-09-11T07:41:41.268Z,101575.93
2018-09-11T07:44:09.644Z,101568.14
2018-09-11T07:46:38.003Z,101565.49
2018-09-11T07:49:06.388Z,101564.31
2018-09-11T07:51:34.781Z,101567.72
2018-09-11T07:54:03.135Z,101565.21
2018-09-11T07:56:31.491Z,101568.16
2018-09-11T07:58:59.879Z,101563.84
2018-09-11T08:01:28.217Z,101567.80
2018-09-11T08:03:56.575Z,101571.58
2018-09-11T08:06:24.963Z,101571.44
2018-09-11T08:08:53.365Z,101571.66
2018-09-11T08:11:21.748Z,101579.02
2018-09-11T08:13:50.140Z,101578.97
2018-09-11T08:16:18.666Z,101585.68
2018-09-11T08:18:47.010Z,101580.04
2018-09-11T08:21:15.380Z,101575.18
2018-09-11T08:23:43.742Z,101573.23
2018-09-11T08:26:12.092Z,101567.94
2018-09-11T08:28:40.522Z,101563.31
2018-09-11T08:31:08.899Z,101560.11
2018-09-11T08:33:37.409Z,101566.59
2018-09-11T08:36:06.377Z,101562.92
2018-09-11T08:38:34.755Z,101578.11
2018-09-11T08:41:03.742Z,101570.26
2018-09-11T08:43:32.071Z,101564.19
2018-09-11T08:46:00.461Z,101563.73
2018-09-11T08:48:28.837Z,101546.87
2018-09-11T08:50:57.228Z,101541.16
2018-09-11T08:53:25.600Z,101537.78
2018-09-11T08:55:53.954Z,101537.70
2018-09-11T08:58:22.356Z,101531.83
2018-09-11T09:00:50.709Z,101525.28
2018-09-11T09:03:19.046Z,101524.30
2018-09-11T09:05:47.441Z,101523.18
2018-09-11T09:08:15.769Z,101530.33
2018-09-11T09:10:44.109Z,101524.91
2018-09-11T09:13:12.442Z,101519.17
2018-09-11T09:15:40.829Z,101530.56
2018-09-11T09:18:09.153Z,101523.77
2018-09-11T09:20:37.490Z,101528.80
2018-09-11T09:23:05.872Z,101506.80
2018-09-11T09:25:34.187Z,101506.67
2018-09-11T09:28:02.529Z,101525.37
2018-09-11T09:30:30.872Z,101523.97
2018-09-11T09:32:59.225Z,101523.05
2018-09-11T09:35:27.566Z,101522.84
2018-09-11T09:37:56.010Z,101519.02
2018-09-11T09:40:24.425Z,101511.48
2018-09-11T09:42:52.775Z,101498.73
2018-09-11T09:45:21.148Z,101493.08
2018-09-11T09:47:49.664Z,101496.92
2018-09-11T09:50:21.689Z,101488.51
2018-09-11T09:52:50.076Z,101481.50
2018-09-11T09:55:18.469Z,101487.69
2018-09-11T09:57:47.211Z,101490.67
2018-09-11T10:00:19.757Z,101477.61
2018-09-11T10:02:48.134Z,101485.88
2018-09-11T10:05:16.508Z,101497.93
2018-09-11T10:07:44.889Z,101496.30
2018-09-11T10:10:13.262Z,101505.36
2018-09-11T10:12:41.618Z,101494.34
2018-09-11T10:15:09.976Z,101475.52
2018-09-11T10:17:38.384Z,101474.86
2018-09-11T10:20:06.789Z,101481.92
2018-09-11T10:22:35.267Z,101469.08
2018-09-11T10:25:03.848Z,101466.46
2018-09-11T10:27:32.365Z,101469.92
2018-09-11T10:30:00.709Z,101472.15
2018-09-11T10:32:29.084Z,101463.22
2018-09-11T10:34:57.430Z,101456.52
2018-09-11T10:37:25.763Z,101468.28
2018-09-11T10:39:54.090Z,101465.36
2018-09-11T10:42:22.467Z,101455.78
2018-09-11T10:44:50.921Z,101467.91
2018-09-11T10:47:19.298Z,101455.52
2018-09-11T10:49:47.902Z,101470.52
2018-09-11T10:52:16.260Z,101465.70
2018-09-11T10:54:44.612Z,101462.50
2018-09-11T10:57:12.960Z,101454.82
2018-09-11T10:59:41.290Z,101468.02
2018-09-11T11:02:09.753Z,101464.06
2018-09-11T11:04:38.127Z,101456.63
2018-09-11T11:07:06.603Z,101459.55
2018-09-11T11:09:35.141Z,101466.72
2018-09-11T11:12:03.533Z,101470.00
2018-09-11T11:14:31.892Z,101464.86
2018-09-11T11:17:00.308Z,101467.55
2018-09-11T11:19:28.652Z,101469.37
2018-09-11T11:21:57.015Z,101462.56
2018-09-11T11:24:25.366Z,101474.32
2018-09-11T11:26:54.331Z,101468.60
2018-09-11T11:29:22.638Z,101469.72
2018-09-11T11:31:51.010Z,101465.68
2018-09-11T11:34:19.334Z,101463.48
2018-09-11T11:36:47.778Z,101460.42
2018-09-11T11:39:16.057Z,101467.81
2018-09-11T11:41:44.583Z,101459.56
2018-09-11T11:44:12.904Z,101464.34
2018-09-11T11:46:41.236Z,101464.48
2018-09-11T11:49:09.577Z,101461.80
2018-09-11T11:51:37.913Z,101463.73
2018-09-11T11:54:06.916Z,101463.52
2018-09-11T11:56:35.257Z,101464.03
2018-09-11T11:59:03.591Z,101454.98
2018-09-11T12:01:32.027Z,101463.23
2018-09-11T12:04:00.377Z,101462.57
2018-09-11T12:06:28.728Z,101453.28
2018-09-11T12:08:57.101Z,101460.84
2018-09-11T12:11:25.519Z,101450.84
2018-09-11T12:13:54.070Z,101456.45
2018-09-11T12:16:22.420Z,101452.00
2018-09-11T12:18:50.770Z,101459.31
2018-09-11T12:21:19.119Z,101449.35
2018-09-11T12:23:47.484Z,101452.27
2018-09-11T12:26:15.866Z,101456.41
2018-09-11T12:28:44.212Z,101456.48
2018-09-11T12:31:12.647Z,101446.49
2018-09-11T12:33:41.028Z,101450.16
2018-09-11T12:36:09.412Z,101447.17
2018-09-11T12:38:37.789Z,101440.75
2018-09-11T12:41:06.488Z,101433.08
2018-09-11T12:43:34.841Z,101436.07
2018-09-11T12:46:03.349Z,101427.67
2018-09-11T12:48:31.765Z,101421.18
2018-09-11T12:51:00.142Z,101417.58
2018-09-11T12:53:28.520Z,101415.56
2018-09-11T12:55:56.936Z,101419.06
2018-09-11T12:58:25.644Z,101431.14
2018-09-11T13:00:54.033Z,101434.56
2018-09-11T13:03:22.384Z,101436.61
2018-09-11T13:05:50.735Z,101437.54
2018-09-11T13:08:19.064Z,101433.28
2018-09-11T13:10:47.483Z,101440.00
2018-09-11T13:13:15.824Z,101442.32
2018-09-11T13:15:44.164Z,101437.34
2018-09-11T13:18:12.540Z,101434.59
2018-09-11T13:20:40.897Z,101426.44
2018-09-11T13:23:09.421Z,101431.31
2018-09-11T13:25:37.753Z,101421.19
2018-09-11T13:28:06.083Z,101416.07
2018-09-11T13:30:34.414Z,101421.66
2018-09-11T13:33:02.772Z,101412.39
2018-09-11T13:35:31.612Z,101416.95
2018-09-11T13:37:59.957Z,101410.59
2018-09-11T13:40:28.283Z,101405.10
2018-09-11T13:42:56.642Z,101401.69
2018-09-11T13:45:24.991Z,101402.62
2018-09-11T13:47:53.352Z,101408.34
2018-09-11T13:50:21.986Z,101404.50
2018-09-11T13:52:50.372Z,101407.67
2018-09-11T13:55:18.677Z,101404.80
2018-09-11T13:57:47.469Z,101404.28
2018-09-11T14:00:15.835Z,101410.93
2018-09-11T14:02:44.255Z,101409.36
2018-09-11T14:05:12.574Z,101405.94
2018-09-11T14:07:40.912Z,101410.30
2018-09-11T14:10:09.255Z,101409.13
2018-09-11T14:12:37.640Z,101403.13
2018-09-11T14:15:06.511Z,101392.66
2018-09-11T14:17:35.306Z,101388.69
2018-09-11T14:20:04.104Z,101381.83
2018-09-11T14:22:33.427Z,101382.81
2018-09-11T14:25:01.786Z,101388.76
2018-09-11T14:27:30.152Z,101393.16
2018-09-11T14:29:58.528Z,101390.77
2018-09-11T14:32:27.120Z,101391.72
2018-09-11T14:34:55.504Z,101391.56
2018-09-11T14:37:23.885Z,101392.36
2018-09-11T14:39:52.237Z,101396.47
2018-09-11T14:42:20.558Z,101398.71
2018-09-11T14:44:48.937Z,101401.62
2018-09-11T14:47:17.316Z,101395.42
2018-09-11T14:49:45.649Z,101400.45
2018-09-11T14:52:14.006Z,101400.59
2018-09-11T14:54:42.404Z,101393.95
2018-09-11T14:57:10.788Z,101393.37
2018-09-11T14:59:39.138Z,101390.56
2018-09-11T15:02:07.552Z,101387.17
2018-09-11T15:04:35.907Z,101391.70
2018-09-11T15:07:04.262Z,101379.50
2018-09-11T15:09:32.649Z,101374.02
2018-09-11T15:12:01.047Z,101379.44
2018-09-11T15:14:29.413Z,101382.46
2018-09-11T15:16:57.822Z,101378.34
2018-09-11T15:19:26.244Z,101380.07
2018-09-11T15:21:54.624Z,101381.95
2018-09-11T15:24:23.031Z,101375.59
2018-09-11T15:26:51.507Z,101376.62
2018-09-11T15:29:19.981Z,101377.76
2018-09-11T15:31:48.327Z,101377.18
2018-09-11T15:34:16.754Z,101376.83
2018-09-11T15:36:45.112Z,101377.18
2018-09-11T15:39:13.581Z,101370.40
2018-09-11T15:41:41.982Z,101372.28
2018-09-11T15:44:10.351Z,101366.79
2018-09-11T15:46:38.777Z,101369.89
2018-09-11T15:49:07.184Z,101367.66
2018-09-11T15:51:35.552Z,101363.69
2018-09-11T15:54:03.994Z,101366.95
2018-09-11T15:56:32.318Z,101364.12
2018-09-11T15:59:00.698Z,101359.19
2018-09-11T16:01:29.050Z,101364.05
2018-09-11T16:03:57.388Z,101370.55
2018-09-11T16:06:25.769Z,101366.56
2018-09-11T16:08:54.117Z,101361.16
2018-09-11T16:11:22.511Z,101367.78
2018-09-11T16:13:50.956Z,101358.41
2018-09-11T16:16:19.357Z,101361.66
2018-09-11T16:20:12.213Z,101357.03
2018-09-11T16:22:40.593Z,101350.45
2018-09-11T16:25:09.003Z,101348.80
2018-09-11T16:27:37.399Z,101355.94
2018-09-11T16:30:06.235Z,101362.52
2018-09-11T16:32:34.614Z,101363.82
2018-09-11T16:35:03.011Z,101362.52
2018-09-11T16:37:31.499Z,101374.02
2018-09-11T16:39:59.859Z,101369.31
2018-09-11T16:42:28.296Z,101384.17
2018-09-11T16:44:56.688Z,101366.14
2018-09-11T16:47:25.080Z,101369.25
2018-09-11T16:49:53.517Z,101370.42
2018-09-11T16:52:21.913Z,101364.50
2018-09-11T16:54:50.273Z,101357.06
2018-09-11T16:57:18.694Z,101365.33
2018-09-11T16:59:47.088Z,101352.55
2018-09-11T17:02:15.611Z,101351.33
2018-09-11T17:04:43.974Z,101349.73
2018-09-11T17:07:12.367Z,101358.50
2018-09-11T17:09:40.853Z,101365.16
2018-09-11T17:12:09.356Z,101366.56
2018-09-11T17:14:37.747Z,101363.03
2018-09-11T17:17:06.352Z,101365.77
2018-09-11T17:19:34.890Z,101366.31
2018-09-11T17:22:03.302Z,101371.00
2018-09-11T17:24:31.762Z,101376.75
2018-09-11T17:27:00.361Z,101370.79
2018-09-11T17:29:28.779Z,101377.91
2018-09-11T17:31:57.148Z,101375.59
2018-09-11T17:34:25.663Z,101375.77
2018-09-11T17:36:54.048Z,101382.52
2018-09-11T17:39:22.430Z,101380.70
2018-09-11T17:41:50.794Z,101384.48
2018-09-11T17:44:19.612Z,101384.89
2018-09-11T17:46:48.757Z,101382.05
2018-09-11T17:49:17.167Z,101382.11
2018-09-11T17:51:45.546Z,101381.77
2018-09-11T17:54:13.892Z,101377.05
2018-09-11T17:56:43.149Z,101382.94
2018-09-11T17:59:11.559Z,101391.05
2018-09-11T18:01:39.958Z,101392.07
2018-09-11T18:04:08.405Z,101386.74
2018-09-11T18:06:36.783Z,101393.95
2018-09-11T18:09:07.132Z,101392.23
2018-09-11T18:11:35.530Z,101388.06
2018-09-11T18:14:04.010Z,101389.69
2018-09-11T18:16:32.409Z,101393.69
2018-09-11T18:19:00.790Z,101396.68
2018-09-11T18:21:29.721Z,101400.06
2018-09-11T18:23:58.404Z,101400.67
2018-09-11T18:26:26.742Z,101408.27
2018-09-11T18:28:55.108Z,101408.30
2018-09-11T18:31:23.939Z,101414.67
2018-09-11T18:33:52.358Z,101415.28
2018-09-11T18:36:20.717Z,101414.30
2018-09-11T18:38:49.344Z,101414.92
2018-09-11T18:41:17.882Z,101422.91
2018-09-11T18:43:46.244Z,101414.80
2018-09-11T18:46:14.660Z,101419.80
2018-09-11T18:48:43.957Z,101411.23
2018-09-11T18:51:13.490Z,101418.45
2018-09-11T18:53:42.018Z,101418.56
2018-09-11T18:56:10.405Z,101417.19
2018-09-11T18:58:38.812Z,101413.69
2018-09-11T19:01:07.188Z,101418.07
2018-09-11T19:03:35.606Z,101425.02
2018-09-11T19:06:04.016Z,101419.18
2018-09-11T19:08:32.528Z,101415.72
2018-09-11T19:11:01.435Z,101425.89
2018-09-11T19:13:29.828Z,101421.30
2018-09-11T19:15:58.218Z,101431.00
2018-09-11T19:18:26.631Z,101422.44
2018-09-11T19:20:55.690Z,101429.38
2018-09-11T19:23:24.111Z,101434.23
2018-09-11T19:25:52.992Z,101435.61
2018-09-11T19:28:21.520Z,101432.38
2018-09-11T19:30:49.948Z,101438.84
2018-09-11T19:33:18.295Z,101437.94
2018-09-11T19:35:46.783Z,101444.67
2018-09-11T19:38:15.304Z,101447.41
2018-09-11T19:40:45.021Z,101452.38
2018-09-11T19:43:13.403Z,101443.67
2018-09-11T19:45:41.949Z,101445.17
2018-09-11T19:48:10.363Z,101453.38
2018-09-11T19:50:38.881Z,101448.52
2018-09-11T19:53:07.213Z,101449.38
2018-09-11T19:55:35.586Z,101448.16
2018-09-11T19:58:03.969Z,101445.55
2018-09-11T20:00:32.906Z,101449.39
2018-09-11T20:03:01.341Z,101449.39
2018-09-11T20:05:29.725Z,101452.12
2018-09-11T20:07:58.276Z,101451.38
2018-09-11T20:10:26.648Z,101460.34
2018-09-11T20:12:55.021Z,101456.71
2018-09-11T20:15:23.380Z,101454.62
2018-09-11T20:17:52.085Z,101461.33
2018-09-11T20:20:21.476Z,101458.59
2018-09-11T20:22:49.847Z,101460.56
2018-09-11T20:25:18.190Z,101461.20
2018-09-11T20:27:46.541Z,101469.14
2018-09-11T20:30:14.908Z,101470.02
2018-09-11T20:32:43.326Z,101474.25
2018-09-11T20:35:11.704Z,101469.38
2018-09-11T20:37:40.093Z,101470.02
2018-09-11T20:40:08.481Z,101463.06
2018-09-11T20:42:36.881Z,101471.36
2018-09-11T20:45:05.336Z,101464.16
2018-09-11T20:47:33.669Z,101464.77
2018-09-11T20:50:02.042Z,101467.59
2018-09-11T20:52:30.502Z,101469.56
2018-09-11T20:54:58.876Z,101468.43
2018-09-11T20:57:27.254Z,101471.03
2018-09-11T20:59:55.635Z,101469.30
2018-09-11T21:02:24.034Z,101467.39
2018-09-11T21:04:52.421Z,101475.59
2018-09-11T21:07:20.801Z,101480.95
2018-09-11T21:09:49.208Z,101482.69
2018-09-11T21:12:17.584Z,101480.45
2018-09-11T21:14:45.960Z,101478.72
2018-09-11T21:17:14.313Z,101478.45
2018-09-11T21:19:42.668Z,101479.45
2018-09-11T21:22:11.001Z,101477.72
2018-09-11T21:24:39.381Z,101475.58
2018-09-11T21:27:07.740Z,101471.85
2018-09-11T21:29:36.082Z,101472.85
2018-09-11T21:32:04.418Z,101475.44
2018-09-11T21:34:32.765Z,101479.12
2018-09-11T21:37:01.115Z,101476.90
2018-09-11T21:39:29.504Z,101476.53
2018-09-11T21:41:57.844Z,101475.62
2018-09-11T21:44:26.196Z,101469.66
2018-09-11T21:46:54.586Z,101471.23
2018-09-11T21:49:22.942Z,101469.73
2018-09-11T21:51:51.293Z,101470.69
2018-09-11T21:54:19.667Z,101481.17
2018-09-11T21:56:47.987Z,101481.81
2018-09-11T21:59:16.328Z,101482.03
2018-09-11T22:01:48.834Z,101481.80
2018-09-11T22:04:17.817Z,101479.97
2018-09-11T22:06:46.140Z,101478.23
2018-09-11T22:09:14.516Z,101475.58
2018-09-11T22:11:42.859Z,101473.85
2018-09-11T22:14:11.549Z,101470.98
2018-09-11T22:16:40.524Z,101475.06
2018-09-11T22:19:08.896Z,101476.80
2018-09-11T22:21:37.904Z,101472.92
2018-09-11T22:24:06.244Z,101469.41
2018-09-11T22:26:35.072Z,101474.98
2018-09-11T22:29:03.552Z,101470.62
2018-09-11T22:31:32.379Z,101469.23
2018-09-11T22:34:00.922Z,101473.31
2018-09-11T22:36:29.249Z,101470.22
2018-09-11T22:38:57.619Z,101469.08
2018-09-11T22:41:25.980Z,101471.28
2018-09-11T22:43:54.466Z,101459.44
2018-09-11T22:46:23.724Z,101464.65
2018-09-11T22:48:52.052Z,101468.45
2018-09-11T22:51:20.378Z,101463.13
2018-09-11T22:53:49.397Z,101465.79
2018-09-11T22:56:17.747Z,101462.08
2018-09-11T22:58:46.101Z,101464.34
2018-09-11T23:01:14.433Z,101460.71
2018-09-11T23:03:42.785Z,101456.87
2018-09-11T23:06:11.129Z,101456.59
2018-09-11T23:08:39.465Z,101462.91
2018-09-11T23:11:07.903Z,101460.80
2018-09-11T23:13:36.220Z,101460.89
2018-09-11T23:16:04.592Z,101461.30
2018-09-11T23:18:32.928Z,101462.00
2018-09-11T23:21:01.289Z,101459.28
2018-09-11T23:23:29.668Z,101456.80
2018-09-11T23:25:57.993Z,101450.61
2018-09-11T23:28:26.321Z,101455.20
2018-09-11T23:30:54.733Z,101455.20
2018-09-11T23:33:23.085Z,101448.38
2018-09-11T23:35:51.424Z,101451.69
2018-09-11T23:38:19.746Z,101449.34
2018-09-11T23:40:48.100Z,101452.19
2018-09-11T23:43:16.587Z,101450.24
2018-09-11T23:45:44.939Z,101448.97
2018-09-11T23:48:13.317Z,101445.00
2018-09-11T23:50:41.649Z,101453.89
2018-09-11T23:53:10.041Z,101450.81
2018-09-11T23:55:38.371Z,101443.78
2018-09-11T23:58:06.702Z,101437.56
